createdAt,value
2022-12-14T00:00:49.936Z,3.20
2022-12-14T00:01:53.222Z,3.58
2022-12-14T00:02:56.057Z,2.95
2022-12-14T00:03:57.938Z,2.72
2022-12-14T00:04:59.723Z,2.90
2022-12-14T00:06:16.548Z,2.85
2022-12-14T00:07:18.255Z,3.53
2022-12-14T00:08:20.171Z,2.92
2022-12-14T00:09:22.049Z,3.05
2022-12-14T00:10:24.071Z,2.55
2022-12-14T00:11:26.622Z,2.97
2022-12-14T00:12:28.576Z,3.13
2022-12-14T00:13:30.303Z,2.50
2022-12-14T00:14:32.011Z,2.80
2022-12-14T00:15:34.196Z,2.40
2022-12-14T00:16:36.546Z,2.75
2022-12-14T00:17:38.369Z,2.97
2022-12-14T00:18:40.774Z,2.78
2022-12-14T00:19:42.470Z,2.78
2022-12-14T00:20:44.194Z,2.70
2022-12-14T00:21:46.003Z,2.55
2022-12-14T00:22:47.824Z,2.60
2022-12-14T00:23:51.187Z,2.22
2022-12-14T00:24:53.055Z,2.80
2022-12-14T00:25:54.795Z,2.63
2022-12-14T00:26:56.482Z,2.45
2022-12-14T00:27:58.722Z,2.70
2022-12-14T00:29:02.064Z,2.35
2022-12-14T00:30:04.175Z,2.65
2022-12-14T00:31:06.517Z,2.50
2022-12-14T00:32:08.277Z,2.65
2022-12-14T00:33:10.392Z,2.80
2022-12-14T00:34:12.158Z,2.70
2022-12-14T00:35:17.021Z,2.17
2022-12-14T00:36:19.348Z,2.28
2022-12-14T00:37:21.074Z,2.53
2022-12-14T00:38:23.136Z,2.95
2022-12-14T00:39:24.878Z,2.75
2022-12-14T00:40:26.595Z,3.17
2022-12-14T00:41:28.363Z,2.60
2022-12-14T00:42:30.126Z,2.55
2022-12-14T00:43:32.104Z,3.00
2022-12-14T00:44:34.149Z,3.08
2022-12-14T00:45:35.840Z,2.65
2022-12-14T00:46:37.934Z,2.78
2022-12-14T00:47:40.995Z,3.13
2022-12-14T00:48:43.074Z,2.97
2022-12-14T00:49:44.835Z,2.83
2022-12-14T00:50:52.407Z,2.97
2022-12-14T00:51:54.606Z,2.85
2022-12-14T00:52:56.312Z,2.90
2022-12-14T00:53:58.242Z,3.15
2022-12-14T00:55:00.419Z,2.17
2022-12-14T00:56:06.999Z,2.72
2022-12-14T00:57:09.198Z,3.13
2022-12-14T00:58:13.150Z,2.95
2022-12-14T00:59:18.628Z,2.72
2022-12-14T01:00:22.431Z,2.83
2022-12-14T01:01:24.177Z,2.70
2022-12-14T01:02:27.073Z,2.58
2022-12-14T01:03:29.318Z,2.38
2022-12-14T01:04:31.404Z,2.72
2022-12-14T01:05:35.932Z,2.80
2022-12-14T01:06:37.807Z,2.60
2022-12-14T01:07:39.559Z,2.67
2022-12-14T01:08:41.284Z,2.40
2022-12-14T01:09:43.112Z,2.25
2022-12-14T01:10:45.274Z,2.45
2022-12-14T01:11:47.304Z,2.67
2022-12-14T01:12:49.495Z,2.40
2022-12-14T01:13:51.235Z,2.40
2022-12-14T01:14:52.982Z,2.45
2022-12-14T01:15:54.711Z,2.33
2022-12-14T01:16:56.468Z,2.65
2022-12-14T01:17:58.200Z,2.25
2022-12-14T01:19:00.877Z,2.42
2022-12-14T01:20:04.389Z,2.10
2022-12-14T01:21:18.348Z,1.92
2022-12-14T01:22:20.079Z,2.00
2022-12-14T01:23:21.814Z,2.20
2022-12-14T01:24:23.542Z,1.70
2022-12-14T01:25:25.843Z,1.90
2022-12-14T01:26:28.975Z,1.77
2022-12-14T01:27:30.731Z,2.03
2022-12-14T01:28:35.159Z,2.08
2022-12-14T01:29:37.243Z,1.88
2022-12-14T01:30:39.727Z,2.53
2022-12-14T01:31:41.602Z,2.08
2022-12-14T01:32:43.342Z,2.00
2022-12-14T01:33:45.395Z,1.88
2022-12-14T01:34:49.028Z,1.85
2022-12-14T01:35:50.714Z,1.92
2022-12-14T01:36:52.467Z,2.53
2022-12-14T01:37:54.274Z,1.83
2022-12-14T01:38:59.043Z,2.05
2022-12-14T01:40:00.737Z,1.80
2022-12-14T01:41:02.835Z,2.22
2022-12-14T01:42:11.553Z,2.33
2022-12-14T01:43:14.931Z,1.80
2022-12-14T01:44:16.803Z,2.05
2022-12-14T01:45:21.732Z,1.90
2022-12-14T01:46:58.020Z,2.35
2022-12-14T01:48:02.621Z,1.75
2022-12-14T01:49:11.051Z,2.58
2022-12-14T01:50:21.513Z,2.10
2022-12-14T01:51:25.550Z,2.58
2022-12-14T01:52:40.926Z,2.65
2022-12-14T01:53:42.668Z,2.45
2022-12-14T01:54:56.425Z,3.08
2022-12-14T01:55:58.382Z,2.28
2022-12-14T01:57:00.738Z,2.10
2022-12-14T01:58:05.140Z,2.78
2022-12-14T01:59:11.872Z,2.75
2022-12-14T02:00:15.410Z,3.13
2022-12-14T02:01:17.378Z,2.65
2022-12-14T02:02:21.062Z,2.80
2022-12-14T02:03:27.114Z,2.90
2022-12-14T02:04:29.677Z,2.30
2022-12-14T02:05:34.211Z,2.67
2022-12-14T02:06:40.302Z,3.00
2022-12-14T02:07:43.405Z,2.85
2022-12-14T02:08:53.390Z,2.90
2022-12-14T02:09:59.654Z,2.60
2022-12-14T12:25:27.601Z,6.78
2022-12-14T12:26:52.066Z,6.97
2022-12-14T12:28:12.408Z,7.32
2022-12-14T12:29:23.385Z,6.97
2022-12-14T12:30:30.993Z,7.05
2022-12-14T12:31:48.653Z,7.50
2022-12-14T12:32:53.166Z,6.63
2022-12-14T12:34:01.780Z,6.13
2022-12-14T12:35:17.382Z,5.75
2022-12-14T12:36:23.991Z,5.63
2022-12-14T12:37:49.747Z,6.30
2022-12-14T12:39:16.130Z,6.10
2022-12-14T12:40:26.655Z,5.93
2022-12-14T12:41:28.692Z,5.93
2022-12-14T12:42:45.336Z,6.43
2022-12-14T12:44:08.451Z,5.95
2022-12-14T12:45:22.314Z,5.65
2022-12-14T12:46:48.399Z,5.68
2022-12-14T12:48:07.537Z,5.90
2022-12-14T12:49:14.837Z,5.32
2022-12-14T12:50:22.974Z,5.57
2022-12-14T12:51:43.115Z,6.57
2022-12-14T12:53:09.410Z,6.18
2022-12-14T12:54:18.578Z,5.93
2022-12-14T12:55:23.779Z,5.47
2022-12-14T12:56:48.345Z,5.53
2022-12-14T12:57:54.714Z,5.32
2022-12-14T12:58:56.633Z,5.57
2022-12-14T13:00:00.047Z,5.95
2022-12-14T13:01:08.130Z,5.35
2022-12-14T13:02:29.444Z,5.70
2022-12-14T13:04:47.812Z,5.65
2022-12-14T13:05:55.287Z,4.60
2022-12-14T13:07:13.694Z,5.45
2022-12-14T13:08:28.768Z,5.15
2022-12-14T13:10:00.541Z,5.28
2022-12-14T13:11:28.435Z,4.95
2022-12-14T13:12:36.603Z,5.63
2022-12-14T13:13:45.264Z,5.88
2022-12-14T13:14:49.678Z,5.50
2022-12-14T13:16:13.893Z,5.55
2022-12-14T13:17:25.370Z,5.90
2022-12-14T13:18:57.789Z,5.40
2022-12-14T13:19:57.514Z,5.25
2022-12-14T13:21:05.654Z,5.75
2022-12-14T13:22:15.047Z,5.82
2022-12-14T13:23:45.782Z,4.82
2022-12-14T13:24:40.376Z,5.43
2022-12-14T13:26:55.744Z,5.25
2022-12-14T13:28:26.530Z,5.93
2022-12-14T13:29:36.963Z,5.65
2022-12-14T13:30:58.559Z,6.00
2022-12-14T13:32:13.292Z,6.72
2022-12-14T13:33:30.462Z,6.95
2022-12-14T13:34:46.761Z,6.97
2022-12-14T13:36:18.446Z,6.30
2022-12-14T13:38:53.943Z,6.28
2022-12-14T13:40:16.279Z,6.73
2022-12-14T13:41:53.428Z,7.07
2022-12-14T13:43:17.406Z,6.93
2022-12-14T13:44:35.735Z,7.25
2022-12-14T13:45:46.516Z,7.28
2022-12-14T13:47:00.525Z,7.45
2022-12-14T13:48:21.706Z,7.28
2022-12-14T13:49:24.351Z,6.68
2022-12-14T13:50:36.269Z,6.03
2022-12-14T13:51:40.452Z,6.90
2022-12-14T13:52:47.864Z,6.90
2022-12-14T13:53:54.997Z,7.00
2022-12-14T13:54:57.094Z,6.20
2022-12-14T13:56:01.381Z,6.90
2022-12-14T13:57:23.259Z,6.88
2022-12-14T13:58:44.627Z,6.50
2022-12-14T14:00:55.643Z,5.85
2022-12-14T14:02:00.188Z,6.80
2022-12-14T14:03:02.152Z,6.50
2022-12-14T14:04:14.951Z,6.50
2022-12-14T14:05:18.741Z,7.22
2022-12-14T14:06:23.037Z,7.45
2022-12-14T14:07:25.134Z,7.60
2022-12-14T14:08:36.097Z,7.20
2022-12-14T14:09:43.828Z,7.88
2022-12-14T14:10:45.671Z,7.50
2022-12-14T14:12:02.094Z,6.78
2022-12-14T14:13:27.000Z,7.70
2022-12-14T14:14:36.913Z,6.55
2022-12-14T14:16:26.249Z,7.03
2022-12-14T14:17:26.717Z,7.88
2022-12-14T14:18:32.292Z,6.25
2022-12-14T14:19:40.922Z,6.95
2022-12-14T14:20:55.270Z,7.28
2022-12-14T14:23:28.353Z,7.45
2022-12-14T14:24:50.165Z,7.50
2022-12-14T14:25:53.533Z,8.10
2022-12-14T14:27:20.420Z,7.38
2022-12-14T14:28:29.030Z,7.38
2022-12-14T14:29:31.815Z,7.75
2022-12-14T14:30:40.894Z,8.55
2022-12-14T14:31:59.011Z,8.27
2022-12-14T14:33:35.928Z,7.53
2022-12-14T14:34:33.687Z,7.15
2022-12-14T14:35:37.672Z,7.32
2022-12-14T14:36:45.132Z,7.88
2022-12-14T14:38:22.594Z,7.72
2022-12-14T14:41:18.103Z,7.82
2022-12-14T14:42:24.345Z,8.27
2022-12-14T14:43:37.516Z,8.18
2022-12-14T14:44:52.917Z,8.13
2022-12-14T14:45:59.610Z,8.00
2022-12-14T14:47:07.383Z,8.20
2022-12-14T14:48:40.904Z,10.07
2022-12-14T14:49:43.944Z,8.98
2022-12-14T14:50:49.157Z,9.85
2022-12-14T14:51:51.082Z,9.35
2022-12-14T14:53:09.632Z,9.70
2022-12-14T14:56:28.979Z,8.70
2022-12-14T14:57:54.571Z,8.65
2022-12-14T14:59:14.583Z,7.85
2022-12-14T15:00:16.920Z,8.13
2022-12-14T15:01:24.850Z,9.45
2022-12-14T15:02:40.051Z,9.38
2022-12-14T15:04:23.260Z,9.15
2022-12-14T15:05:42.704Z,8.75
2022-12-14T15:06:47.383Z,8.93
2022-12-14T15:07:49.585Z,9.10
2022-12-14T15:09:09.124Z,9.88
2022-12-14T15:10:27.299Z,9.85
2022-12-14T15:11:44.774Z,8.95
2022-12-14T15:13:03.853Z,9.65
2022-12-14T15:14:28.408Z,9.23
2022-12-14T15:15:32.955Z,9.23
2022-12-14T15:16:42.735Z,9.15
2022-12-14T15:17:44.873Z,9.07
2022-12-14T15:18:46.955Z,8.85
2022-12-14T15:19:57.427Z,9.35
2022-12-14T15:21:07.914Z,9.48
2022-12-14T15:22:15.782Z,9.60
2022-12-14T15:23:17.602Z,9.57
2022-12-14T15:24:21.242Z,9.15
2022-12-14T15:25:26.614Z,9.07
2022-12-14T15:26:33.556Z,9.82
2022-12-14T15:27:38.096Z,9.95
2022-12-14T15:28:40.292Z,9.88
2022-12-14T15:29:45.432Z,8.27
2022-12-14T15:30:51.380Z,10.52
2022-12-14T15:31:59.896Z,9.90
2022-12-14T15:33:06.538Z,9.55
2022-12-14T15:34:15.738Z,9.43
2022-12-14T15:35:23.095Z,9.38
2022-12-14T15:36:30.675Z,10.30
2022-12-14T15:37:48.899Z,9.80
2022-12-14T15:38:55.874Z,9.27
2022-12-14T15:40:07.740Z,10.20
2022-12-14T15:41:16.151Z,9.30
2022-12-14T15:42:18.514Z,9.75
2022-12-14T15:43:23.055Z,9.57
2022-12-14T15:44:24.779Z,9.63
2022-12-14T15:45:30.207Z,9.88
2022-12-14T15:46:34.947Z,10.00
2022-12-14T15:47:36.770Z,10.70
2022-12-14T15:48:38.529Z,9.85
2022-12-14T15:49:40.420Z,9.85
2022-12-14T15:50:45.397Z,9.85
2022-12-14T15:51:47.660Z,9.18
2022-12-14T15:52:51.253Z,9.02
2022-12-14T15:53:55.192Z,9.13
2022-12-14T15:54:59.240Z,9.25
2022-12-14T15:56:22.982Z,9.57
2022-12-14T15:57:25.603Z,8.98
2022-12-14T15:58:33.910Z,9.75
2022-12-14T15:59:36.373Z,9.70
2022-12-14T16:00:42.779Z,10.25
2022-12-14T16:01:55.222Z,10.35
2022-12-14T16:03:00.307Z,9.52
2022-12-14T16:04:06.209Z,9.90
2022-12-14T16:05:17.083Z,9.40
2022-12-14T16:06:19.830Z,10.02
2022-12-14T16:07:30.163Z,9.88
2022-12-14T16:08:35.463Z,10.15
2022-12-14T16:09:43.386Z,8.93
2022-12-14T16:10:46.221Z,9.60
2022-12-14T16:11:52.224Z,9.43
2022-12-14T16:12:57.929Z,8.50
2022-12-14T16:14:03.487Z,8.70
2022-12-14T16:15:08.474Z,9.55
2022-12-14T16:16:13.050Z,8.43
2022-12-14T16:17:21.861Z,9.65
2022-12-14T16:18:25.011Z,9.00
2022-12-14T16:19:33.919Z,8.23
2022-12-14T16:20:45.261Z,8.73
2022-12-14T16:21:49.650Z,8.73
2022-12-14T16:23:05.861Z,9.73
2022-12-14T16:24:24.928Z,8.52
2022-12-14T16:25:27.315Z,9.50
2022-12-14T16:26:36.295Z,8.68
2022-12-14T16:27:44.801Z,10.05
2022-12-14T16:28:48.037Z,8.35
2022-12-14T16:30:27.322Z,9.20
2022-12-14T16:31:29.090Z,8.30
2022-12-14T16:32:30.924Z,8.35
2022-12-14T16:33:36.784Z,8.63
2022-12-14T16:34:39.544Z,8.75
2022-12-14T16:35:41.525Z,8.85
2022-12-14T16:36:56.273Z,8.55
2022-12-14T16:38:18.931Z,9.02
2022-12-14T16:39:22.905Z,8.63
2022-12-14T16:40:35.424Z,9.80
2022-12-14T16:42:04.435Z,9.02
2022-12-14T16:43:21.482Z,9.25
2022-12-14T16:44:33.699Z,8.20
2022-12-14T16:46:01.567Z,9.60
2022-12-14T16:47:03.335Z,9.57
2022-12-14T16:48:15.571Z,9.27
2022-12-14T16:49:31.138Z,8.63
2022-12-14T16:50:55.969Z,8.95
2022-12-14T16:52:40.880Z,9.52
2022-12-14T16:53:51.272Z,9.82
2022-12-14T16:55:13.204Z,9.75
2022-12-14T16:56:19.325Z,8.35
2022-12-14T16:57:23.823Z,9.35
2022-12-14T16:58:25.737Z,9.05
2022-12-14T16:59:43.037Z,8.65
2022-12-14T17:01:00.796Z,10.07
2022-12-14T17:02:03.642Z,9.30
2022-12-14T17:03:18.420Z,9.80
2022-12-14T17:04:20.954Z,8.88
2022-12-14T17:05:23.751Z,9.95
2022-12-14T17:06:37.179Z,10.27
2022-12-14T17:07:39.313Z,10.43
2022-12-14T17:08:41.102Z,10.93
2022-12-14T17:09:42.858Z,10.30
2022-12-14T17:10:45.155Z,10.52
2022-12-14T17:11:47.943Z,10.80
2022-12-14T17:12:49.958Z,11.23
2022-12-14T17:13:51.910Z,9.77
2022-12-14T17:14:53.725Z,9.45
2022-12-14T17:16:06.010Z,9.57
2022-12-14T17:17:08.273Z,10.55
2022-12-14T17:18:11.050Z,10.65
2022-12-14T17:19:23.302Z,10.80
2022-12-14T17:20:39.364Z,11.32
2022-12-14T17:21:42.686Z,10.00
2022-12-14T17:22:44.673Z,9.57
2022-12-14T17:23:54.688Z,10.85
2022-12-14T17:24:56.432Z,11.57
2022-12-14T17:25:58.795Z,10.90
2022-12-14T17:27:00.580Z,10.57
2022-12-14T17:28:02.479Z,10.68
2022-12-14T17:29:04.361Z,9.90
2022-12-14T17:30:07.619Z,11.48
2022-12-14T17:31:11.046Z,10.32
2022-12-14T17:32:14.582Z,10.55
2022-12-14T17:33:16.868Z,10.23
2022-12-14T17:34:19.095Z,9.98
2022-12-14T17:35:29.985Z,10.90
2022-12-14T17:36:31.730Z,10.30
2022-12-14T17:37:36.519Z,10.63
2022-12-14T17:38:38.582Z,9.95
2022-12-14T17:39:40.287Z,11.30
2022-12-14T17:40:42.858Z,11.10
2022-12-14T17:41:45.809Z,11.52
2022-12-14T17:42:52.315Z,10.63
2022-12-14T17:43:58.388Z,10.50
2022-12-14T17:45:00.605Z,10.45
2022-12-14T17:46:03.342Z,10.88
2022-12-14T17:47:05.330Z,10.70
2022-12-14T17:48:14.459Z,10.75
2022-12-14T17:49:16.899Z,11.43
2022-12-14T17:50:19.512Z,10.48
2022-12-14T17:51:28.569Z,10.55
2022-12-14T17:52:32.813Z,11.85
2022-12-14T17:53:36.261Z,11.38
2022-12-14T17:54:38.317Z,11.10
2022-12-14T17:55:40.734Z,10.07
2022-12-14T17:56:43.664Z,11.38
2022-12-14T17:57:46.119Z,11.57
2022-12-14T17:58:47.910Z,10.38
2022-12-14T18:00:10.718Z,10.82
2022-12-14T18:01:23.491Z,11.48
2022-12-14T18:02:29.982Z,9.88
2022-12-14T18:03:36.355Z,10.25
2022-12-14T18:04:41.305Z,11.18
2022-12-14T18:05:48.585Z,10.68
2022-12-14T18:06:51.566Z,11.77
2022-12-14T18:07:53.333Z,11.57
2022-12-14T18:08:55.157Z,11.35
2022-12-14T18:09:57.065Z,10.52
2022-12-14T18:11:13.548Z,11.63
2022-12-14T18:12:24.508Z,10.73
2022-12-14T18:13:28.624Z,10.55
2022-12-14T18:14:30.683Z,11.30
2022-12-14T18:15:43.773Z,11.45
2022-12-14T18:16:51.287Z,11.45
2022-12-14T18:17:53.149Z,11.25
2022-12-14T18:18:55.559Z,11.05
2022-12-14T18:19:57.393Z,10.75
2022-12-14T18:21:01.395Z,10.40
2022-12-14T18:22:04.285Z,12.02
2022-12-14T18:23:06.954Z,10.48
2022-12-14T18:24:15.252Z,12.63
2022-12-14T18:25:28.362Z,12.55
2022-12-14T18:26:30.119Z,12.43
2022-12-14T18:27:31.887Z,11.95
2022-12-14T18:28:33.728Z,12.93
2022-12-14T18:29:35.444Z,13.93
2022-12-14T18:30:49.069Z,11.77
2022-12-14T18:31:52.143Z,13.57
2022-12-14T18:32:58.118Z,12.80
2022-12-14T18:33:59.920Z,13.07
2022-12-14T18:35:01.791Z,12.10
2022-12-14T18:36:03.687Z,12.68
2022-12-14T18:37:05.443Z,13.77
2022-12-14T18:38:08.119Z,13.10
2022-12-14T18:39:10.011Z,12.18
2022-12-14T18:40:16.138Z,13.02
2022-12-14T18:41:20.633Z,13.90
2022-12-14T18:42:22.865Z,13.75
2022-12-14T18:43:28.030Z,12.30
2022-12-14T18:44:30.273Z,13.05
2022-12-14T18:45:34.358Z,12.82
2022-12-14T18:46:36.281Z,13.55
2022-12-14T18:47:42.486Z,11.93
2022-12-14T18:48:45.090Z,13.73
2022-12-14T18:49:46.822Z,13.35
2022-12-14T18:50:50.179Z,12.65
2022-12-14T18:51:52.194Z,13.80
2022-12-14T18:52:55.726Z,12.68
2022-12-14T18:53:59.938Z,12.57
2022-12-14T18:55:01.766Z,13.43
2022-12-14T18:56:07.526Z,14.35
2022-12-14T18:57:09.316Z,14.60
2022-12-14T18:58:26.653Z,13.55
2022-12-14T18:59:28.391Z,13.13
2022-12-14T19:00:33.823Z,12.38
2022-12-14T19:01:35.672Z,13.27
2022-12-14T19:02:38.007Z,14.88
2022-12-14T19:03:40.196Z,14.40
2022-12-14T19:04:42.132Z,13.32
2022-12-14T19:05:46.695Z,14.40
2022-12-14T19:06:48.491Z,14.32
2022-12-14T19:07:50.982Z,13.63
2022-12-14T19:08:53.870Z,14.35
2022-12-14T19:09:55.611Z,14.05
2022-12-14T19:10:57.482Z,15.15
2022-12-14T19:11:59.300Z,13.63
2022-12-14T19:13:01.131Z,14.70
2022-12-14T19:14:03.250Z,13.90
2022-12-14T19:15:05.854Z,14.57
2022-12-14T19:16:07.945Z,13.30
2022-12-14T19:17:09.776Z,14.68
2022-12-14T19:18:11.771Z,14.70
2022-12-14T19:19:13.691Z,14.38
2022-12-14T19:20:16.978Z,14.43
2022-12-14T19:21:19.055Z,13.75
